createdAt,value
2017-06-23T00:00:22.256Z,79.50
2017-06-23T00:02:50.630Z,79.40
2017-06-23T00:05:19.005Z,78.90
2017-06-23T00:07:47.404Z,78.80
2017-06-23T00:10:16.554Z,79.10
2017-06-23T00:12:44.958Z,79.00
2017-06-23T00:15:13.347Z,78.90
2017-06-23T00:17:41.726Z,79.30
2017-06-23T00:20:10.111Z,79.60
2017-06-23T00:22:39.265Z,80.00
2017-06-23T00:25:07.670Z,79.90
2017-06-23T00:27:36.054Z,79.90
2017-06-23T00:30:04.430Z,79.90
2017-06-23T00:32:32.826Z,79.80
2017-06-23T00:35:01.978Z,80.40
2017-06-23T00:37:30.384Z,80.40
2017-06-23T00:39:58.756Z,80.10
2017-06-23T00:42:27.146Z,80.50
2017-06-23T00:44:56.300Z,79.90
2017-06-23T00:47:24.689Z,80.40
2017-06-23T00:49:53.093Z,80.20
2017-06-23T00:52:21.483Z,80.90
2017-06-23T00:54:50.641Z,81.30
2017-06-23T00:57:19.029Z,81.30
2017-06-23T00:59:47.418Z,81.20
2017-06-23T01:02:15.825Z,81.30
2017-06-23T01:04:44.210Z,81.60
2017-06-23T01:07:12.610Z,82.10
2017-06-23T01:09:41.004Z,81.80
2017-06-23T01:12:09.380Z,82.00
2017-06-23T01:14:37.768Z,82.40
2017-06-23T01:17:06.171Z,82.70
2017-06-23T01:19:34.576Z,82.90
2017-06-23T01:22:02.995Z,83.10
2017-06-23T01:24:31.388Z,83.80
2017-06-23T01:26:59.776Z,83.80
2017-06-23T01:29:28.180Z,83.40
2017-06-23T01:31:56.563Z,83.30
2017-06-23T01:34:24.972Z,83.20
2017-06-23T01:36:53.378Z,82.70
2017-06-23T01:39:21.766Z,83.10
2017-06-23T01:41:50.184Z,83.30
2017-06-23T01:44:18.577Z,83.30
2017-06-23T01:46:46.978Z,83.50
2017-06-23T01:49:15.378Z,83.10
2017-06-23T01:51:43.773Z,83.70
2017-06-23T01:54:12.176Z,83.40
2017-06-23T01:56:40.565Z,82.90
2017-06-23T01:59:08.985Z,82.80
2017-06-23T02:01:37.360Z,83.40
2017-06-23T02:04:05.749Z,83.30
2017-06-23T02:06:34.153Z,84.10
2017-06-23T02:09:02.529Z,83.30
2017-06-23T02:11:31.504Z,83.10
2017-06-23T02:13:59.892Z,82.90
2017-06-23T02:16:29.076Z,83.20
2017-06-23T02:18:57.105Z,83.20
2017-06-23T02:21:25.494Z,83.40
2017-06-23T02:23:53.884Z,83.80
2017-06-23T02:26:22.288Z,83.70
2017-06-23T02:28:51.476Z,84.00
2017-06-23T02:31:19.865Z,84.00
2017-06-23T02:33:49.020Z,84.60
2017-06-23T02:36:17.421Z,84.50
2017-06-23T02:38:45.810Z,84.70
2017-06-23T02:41:14.981Z,85.80
2017-06-23T02:43:43.354Z,85.80
2017-06-23T02:46:11.738Z,86.00
2017-06-23T02:48:40.131Z,86.00
2017-06-23T02:51:08.524Z,86.50
2017-06-23T02:53:37.761Z,87.30
2017-06-23T02:56:06.158Z,87.20
2017-06-23T02:58:34.544Z,87.20
2017-06-23T03:01:02.949Z,87.30
2017-06-23T03:03:31.338Z,87.10
2017-06-23T03:06:00.524Z,87.20
2017-06-23T03:08:29.693Z,86.90
2017-06-23T03:10:58.083Z,86.90
2017-06-23T03:13:26.486Z,86.60
2017-06-23T03:15:54.869Z,86.70
2017-06-23T03:18:24.058Z,86.30
2017-06-23T03:20:53.229Z,86.10
2017-06-23T03:23:21.618Z,86.10
2017-06-23T03:25:50.024Z,86.20
2017-06-23T03:28:18.411Z,86.20
2017-06-23T03:30:46.816Z,86.20
2017-06-23T03:33:15.206Z,86.30
2017-06-23T03:35:43.594Z,86.60
2017-06-23T03:38:12.004Z,86.90
2017-06-23T03:40:41.165Z,86.80
2017-06-23T03:43:09.568Z,86.70
2017-06-23T03:45:37.963Z,87.20
2017-06-23T03:48:06.349Z,87.30
2017-06-23T03:50:34.737Z,87.50
2017-06-23T03:53:03.127Z,87.60
2017-06-23T03:55:31.533Z,87.70
2017-06-23T03:57:59.934Z,87.60
2017-06-23T04:00:29.088Z,88.10
2017-06-23T04:02:57.477Z,87.80
2017-06-23T04:05:25.869Z,87.70
2017-06-23T04:07:54.286Z,87.70
2017-06-23T04:10:22.690Z,87.80
2017-06-23T04:12:51.170Z,87.70
2017-06-23T04:15:19.577Z,88.80
2017-06-23T04:17:47.963Z,87.90
2017-06-23T04:20:16.383Z,87.90
2017-06-23T04:22:44.775Z,87.80
2017-06-23T04:25:13.161Z,87.60
2017-06-23T04:27:41.566Z,87.60
2017-06-23T04:30:09.954Z,87.70
2017-06-23T04:32:38.357Z,88.40
2017-06-23T04:35:07.523Z,88.40
2017-06-23T04:37:35.912Z,88.40
2017-06-23T04:40:04.324Z,88.40
2017-06-23T04:42:32.711Z,88.60
2017-06-23T04:45:01.118Z,87.70
2017-06-23T04:47:29.519Z,87.70
2017-06-23T04:49:57.918Z,87.10
2017-06-23T04:52:27.095Z,87.30
2017-06-23T04:54:55.536Z,87.30
2017-06-23T04:57:23.950Z,87.70
2017-06-23T04:59:52.336Z,88.80
2017-06-23T05:02:20.725Z,87.70
2017-06-23T05:04:49.908Z,87.70
2017-06-23T05:07:18.301Z,87.80
2017-06-23T05:09:46.705Z,88.00
2017-06-23T05:12:15.124Z,87.80
2017-06-23T05:14:43.513Z,87.40
2017-06-23T05:17:11.945Z,87.90
2017-06-23T05:19:40.337Z,87.40
2017-06-23T05:22:08.744Z,87.60
2017-06-23T05:24:37.208Z,87.70
2017-06-23T05:27:05.603Z,87.90
2017-06-23T05:29:33.997Z,88.00
2017-06-23T05:32:02.388Z,87.90
2017-06-23T05:34:31.560Z,87.90
2017-06-23T05:36:59.945Z,87.80
2017-06-23T05:39:28.771Z,87.80
2017-06-23T05:41:57.161Z,87.60
2017-06-23T05:44:25.549Z,87.20
2017-06-23T05:46:53.969Z,87.20
2017-06-23T05:49:22.357Z,86.60
2017-06-23T05:51:50.749Z,86.80
2017-06-23T05:54:19.915Z,86.30
2017-06-23T05:56:48.289Z,86.30
2017-06-23T05:59:16.497Z,86.10
2017-06-23T06:01:45.639Z,86.30
2017-06-23T06:04:14.031Z,86.20
2017-06-23T06:06:42.431Z,86.10
2017-06-23T06:09:10.808Z,86.40
2017-06-23T06:11:39.223Z,86.50
2017-06-23T06:14:07.598Z,86.30
2017-06-23T06:16:35.987Z,86.80
2017-06-23T06:19:04.386Z,86.70
2017-06-23T06:21:32.784Z,86.40
2017-06-23T06:24:01.200Z,86.10
2017-06-23T06:26:29.588Z,85.90
2017-06-23T06:28:57.966Z,86.00
2017-06-23T06:31:26.368Z,85.20
2017-06-23T06:33:54.757Z,85.20
2017-06-23T06:36:23.176Z,84.30
2017-06-23T06:38:52.350Z,83.50
2017-06-23T06:41:20.763Z,83.40
2017-06-23T06:43:49.934Z,83.40
2017-06-23T06:46:18.339Z,83.30
2017-06-23T06:48:46.744Z,83.10
2017-06-23T06:51:15.130Z,83.10
2017-06-23T06:53:43.536Z,83.50
2017-06-23T06:56:11.934Z,84.30
2017-06-23T06:58:41.094Z,86.50
2017-06-23T07:01:09.517Z,85.70
2017-06-23T07:03:38.667Z,85.30
2017-06-23T07:06:07.066Z,85.30
2017-06-23T07:08:35.462Z,86.90
2017-06-23T07:11:04.611Z,84.00
2017-06-23T07:13:33.017Z,84.40
2017-06-23T07:16:01.402Z,85.40
2017-06-23T07:18:29.786Z,84.90
2017-06-23T07:20:58.200Z,84.20
2017-06-23T07:23:26.577Z,82.60
2017-06-23T07:25:54.982Z,83.20
2017-06-23T07:28:23.384Z,81.90
2017-06-23T07:30:51.773Z,81.70
2017-06-23T07:33:20.177Z,82.20
2017-06-23T07:35:49.330Z,81.60
2017-06-23T07:38:17.736Z,81.60
2017-06-23T07:40:46.127Z,82.10
2017-06-23T07:43:14.515Z,82.00
2017-06-23T07:45:42.905Z,82.60
2017-06-23T07:48:11.277Z,83.60
2017-06-23T07:50:39.696Z,84.40
2017-06-23T07:53:08.074Z,83.00
2017-06-23T07:55:36.459Z,81.50
2017-06-23T07:58:04.853Z,81.00
2017-06-23T08:00:33.248Z,81.70
2017-06-23T08:03:01.662Z,81.30
2017-06-23T08:05:30.049Z,80.80
2017-06-23T08:07:58.438Z,78.90
2017-06-23T08:10:26.859Z,78.00
2017-06-23T08:12:56.025Z,78.90
2017-06-23T08:15:24.444Z,78.90
2017-06-23T08:17:53.600Z,79.30
2017-06-23T08:20:21.989Z,79.30
2017-06-23T08:22:50.393Z,79.00
2017-06-23T08:25:18.906Z,78.10
2017-06-23T08:27:47.323Z,76.80
2017-06-23T08:30:15.725Z,76.20
2017-06-23T08:32:44.881Z,74.80
2017-06-23T08:35:13.274Z,74.70
2017-06-23T08:37:41.660Z,74.00
2017-06-23T08:40:10.065Z,73.00
2017-06-23T08:42:39.218Z,72.60
2017-06-23T08:45:07.248Z,72.60
2017-06-23T08:47:35.638Z,71.30
2017-06-23T08:50:03.834Z,71.10
2017-06-23T08:52:32.237Z,69.60
2017-06-23T08:55:00.615Z,68.00
2017-06-23T08:57:28.995Z,67.00
2017-06-23T08:59:57.403Z,69.90
2017-06-23T09:02:25.795Z,67.00
2017-06-23T09:04:54.198Z,68.80
2017-06-23T09:07:22.587Z,70.20
2017-06-23T09:09:50.975Z,67.90
2017-06-23T09:12:19.365Z,69.60
2017-06-23T09:14:47.758Z,65.80
2017-06-23T09:17:16.177Z,64.40
2017-06-23T09:19:44.575Z,69.10
2017-06-23T09:22:12.969Z,65.70
2017-06-23T09:24:41.372Z,64.20
2017-06-23T09:27:09.766Z,64.00
2017-06-23T09:29:38.184Z,64.40
2017-06-23T09:32:06.586Z,65.30
2017-06-23T09:34:34.979Z,67.50
2017-06-23T09:37:04.205Z,65.90
2017-06-23T09:39:32.590Z,65.00
2017-06-23T09:42:01.022Z,65.50
2017-06-23T09:44:29.406Z,65.00
2017-06-23T09:46:57.792Z,64.00
2017-06-23T09:49:26.198Z,62.20
2017-06-23T09:51:54.602Z,62.50
2017-06-23T09:54:23.019Z,62.20
2017-06-23T09:56:51.411Z,64.80
2017-06-23T09:59:20.567Z,61.90
2017-06-23T10:01:48.785Z,61.70
2017-06-23T10:04:17.946Z,60.90
2017-06-23T10:06:46.337Z,60.70
2017-06-23T10:09:14.749Z,62.70
2017-06-23T10:11:43.131Z,63.90
2017-06-23T10:14:11.512Z,66.10
2017-06-23T10:16:39.920Z,66.60
2017-06-23T10:19:08.301Z,66.90
2017-06-23T10:21:36.682Z,64.70
2017-06-23T10:24:05.085Z,65.40
2017-06-23T10:26:33.475Z,64.20
2017-06-23T10:29:01.882Z,61.30
2017-06-23T10:31:30.284Z,62.50
2017-06-23T10:33:58.717Z,62.80
2017-06-23T10:36:27.122Z,60.10
2017-06-23T10:38:55.526Z,60.80
2017-06-23T10:41:23.930Z,63.60
2017-06-23T10:43:52.320Z,64.50
2017-06-23T10:46:21.505Z,63.10
2017-06-23T10:48:49.896Z,62.20
2017-06-23T10:51:19.049Z,66.10
2017-06-23T10:53:47.509Z,65.20
2017-06-23T10:56:15.904Z,67.20
2017-06-23T10:58:44.293Z,65.00
2017-06-23T11:01:12.697Z,63.80
2017-06-23T11:03:41.131Z,65.00
2017-06-23T11:06:09.519Z,64.90
2017-06-23T11:08:37.939Z,63.80
2017-06-23T11:11:06.316Z,62.80
2017-06-23T11:13:34.699Z,60.70
2017-06-23T11:16:03.137Z,62.40
2017-06-23T11:18:31.526Z,62.60
2017-06-23T11:20:59.919Z,60.60
2017-06-23T11:23:28.336Z,59.90
2017-06-23T11:25:56.725Z,60.60
2017-06-23T11:28:25.119Z,61.50
2017-06-23T11:30:53.537Z,61.20
2017-06-23T11:33:21.923Z,59.40
2017-06-23T11:35:50.313Z,58.20
2017-06-23T11:38:19.497Z,59.70
2017-06-23T11:40:47.874Z,59.70
2017-06-23T11:43:16.285Z,58.40
2017-06-23T11:45:44.697Z,59.10
2017-06-23T11:48:13.083Z,60.40
2017-06-23T11:50:41.473Z,59.90
2017-06-23T11:53:09.906Z,60.10
2017-06-23T11:55:38.298Z,59.30
2017-06-23T11:58:06.730Z,59.10
2017-06-23T12:00:35.154Z,58.50
2017-06-23T12:03:03.541Z,57.70
2017-06-23T12:05:31.945Z,58.00
2017-06-23T12:08:00.349Z,57.00
2017-06-23T12:10:29.517Z,57.20
2017-06-23T12:12:57.921Z,57.20
2017-06-23T12:15:26.333Z,58.90
2017-06-23T12:17:54.721Z,59.40
2017-06-23T12:20:23.109Z,59.60
2017-06-23T12:22:51.529Z,58.50
2017-06-23T12:25:19.917Z,58.10
2017-06-23T12:27:49.088Z,58.90
2017-06-23T12:30:17.505Z,58.90
2017-06-23T12:32:46.017Z,56.70
2017-06-23T12:35:14.404Z,56.50
2017-06-23T12:37:42.809Z,56.20
2017-06-23T12:40:11.203Z,55.20
2017-06-23T12:42:39.587Z,55.60
2017-06-23T12:45:08.774Z,52.80
2017-06-23T12:47:37.189Z,52.80
2017-06-23T12:50:05.575Z,55.60
2017-06-23T12:52:33.989Z,56.70
2017-06-23T12:55:02.377Z,57.20
2017-06-23T12:57:30.773Z,56.60
2017-06-23T12:59:59.947Z,57.20
2017-06-23T13:02:28.356Z,57.10
2017-06-23T13:04:57.520Z,55.60
2017-06-23T13:07:25.925Z,55.50
2017-06-23T13:09:55.096Z,55.30
2017-06-23T13:12:23.484Z,55.30
2017-06-23T13:14:51.892Z,55.70
2017-06-23T13:17:21.056Z,54.80
2017-06-23T13:19:49.552Z,54.20
2017-06-23T13:22:17.990Z,52.90
2017-06-23T13:24:47.376Z,52.90
2017-06-23T13:27:15.759Z,52.90
2017-06-23T13:29:44.202Z,53.50
2017-06-23T13:32:13.353Z,54.60
2017-06-23T13:34:41.741Z,54.50
2017-06-23T13:37:10.191Z,55.10
2017-06-23T13:39:38.589Z,55.60
2017-06-23T13:42:06.976Z,55.00
2017-06-23T13:44:35.398Z,56.20
2017-06-23T13:47:03.784Z,55.10
2017-06-23T13:49:33.240Z,53.90
2017-06-23T13:52:01.672Z,54.90
2017-06-23T13:54:30.071Z,54.80
2017-06-23T13:56:58.465Z,54.10
2017-06-23T13:59:26.886Z,53.20
2017-06-23T14:01:55.304Z,52.80
2017-06-23T14:04:23.703Z,53.80
2017-06-23T14:06:52.111Z,54.30
2017-06-23T14:09:21.265Z,54.20
2017-06-23T14:11:49.680Z,54.20
2017-06-23T14:14:18.873Z,54.00
2017-06-23T14:16:47.273Z,53.90
2017-06-23T14:19:15.665Z,54.90
2017-06-23T14:21:44.093Z,53.90
2017-06-23T14:24:12.502Z,56.00
2017-06-23T14:26:41.689Z,55.10
2017-06-23T14:29:10.901Z,54.60
2017-06-23T14:31:39.305Z,54.10
2017-06-23T14:34:07.681Z,54.70
2017-06-23T14:36:36.101Z,54.40
2017-06-23T14:39:03.619Z,55.10
2017-06-23T14:41:32.001Z,54.90
2017-06-23T14:44:00.429Z,55.20
2017-06-23T14:46:28.816Z,55.40
2017-06-23T14:48:57.984Z,56.00
2017-06-23T14:51:26.388Z,55.50
2017-06-23T14:53:54.831Z,55.30
2017-06-23T14:56:30.287Z,55.10
2017-06-23T14:58:58.692Z,56.10
2017-06-23T15:01:27.865Z,53.80
2017-06-23T15:03:56.288Z,53.70
2017-06-23T15:06:24.689Z,54.20
2017-06-23T15:08:53.081Z,54.90
2017-06-23T15:11:21.492Z,54.60
2017-06-23T15:13:49.902Z,55.00
2017-06-23T15:16:18.305Z,55.20
2017-06-23T15:18:46.724Z,55.10
2017-06-23T15:21:15.117Z,54.30
2017-06-23T15:23:44.284Z,54.00
2017-06-23T15:26:12.697Z,54.00
2017-06-23T15:28:41.857Z,55.20
2017-06-23T15:31:10.247Z,55.10
2017-06-23T15:33:38.737Z,53.40
2017-06-23T15:36:07.236Z,53.60
2017-06-23T15:38:37.469Z,52.50
2017-06-23T15:41:05.977Z,52.40
2017-06-23T15:43:34.376Z,52.90
2017-06-23T15:46:02.771Z,53.80
2017-06-23T15:48:31.177Z,53.80
2017-06-23T15:51:00.338Z,55.30
2017-06-23T15:53:28.737Z,55.20
2017-06-23T15:55:57.152Z,54.10
2017-06-23T15:58:25.552Z,54.10
2017-06-23T16:00:54.007Z,53.30
2017-06-23T16:03:22.434Z,52.60
2017-06-23T16:05:51.078Z,52.80
2017-06-23T16:08:19.531Z,53.80
2017-06-23T16:10:47.953Z,52.60
2017-06-23T16:13:16.345Z,52.50
2017-06-23T16:15:44.753Z,52.00
2017-06-23T16:18:13.945Z,53.70
2017-06-23T16:20:42.317Z,53.70
2017-06-23T16:23:10.717Z,54.90
2017-06-23T16:25:39.916Z,53.90
2017-06-23T16:28:09.093Z,53.90
2017-06-23T16:30:37.489Z,53.90
2017-06-23T16:33:06.677Z,53.40
2017-06-23T16:35:35.066Z,53.40
2017-06-23T16:38:04.263Z,53.80
2017-06-23T16:40:33.436Z,53.00
2017-06-23T16:43:01.824Z,53.00
2017-06-23T16:45:30.201Z,53.70
2017-06-23T16:47:58.762Z,53.80
2017-06-23T16:50:27.165Z,53.90
2017-06-23T16:52:56.349Z,52.80
2017-06-23T16:55:24.760Z,52.80
2017-06-23T16:57:53.148Z,53.60
2017-06-23T17:00:21.541Z,53.00
2017-06-23T17:02:49.973Z,53.30
2017-06-23T17:05:18.349Z,53.60
2017-06-23T17:07:46.734Z,53.50
2017-06-23T17:10:15.978Z,52.40
2017-06-23T17:12:44.366Z,52.70
2017-06-23T17:15:12.759Z,53.00
2017-06-23T17:17:41.193Z,53.60
2017-06-23T17:20:09.582Z,53.00
2017-06-23T17:22:37.995Z,52.50
2017-06-23T17:25:06.489Z,52.90
2017-06-23T17:27:36.423Z,53.40
2017-06-23T17:30:05.614Z,53.40
2017-06-23T17:32:34.003Z,53.30
2017-06-23T17:35:03.173Z,53.00
2017-06-23T17:37:31.605Z,52.90
2017-06-23T17:40:16.722Z,53.40
2017-06-23T17:42:45.182Z,53.40
2017-06-23T17:45:13.578Z,53.40
2017-06-23T17:47:41.966Z,52.90
2017-06-23T17:50:10.385Z,52.90
2017-06-23T17:52:38.829Z,53.40
2017-06-23T17:55:07.218Z,53.60
2017-06-23T17:57:36.387Z,53.70
2017-06-23T18:00:04.438Z,53.60
2017-06-23T18:02:32.830Z,54.50
2017-06-23T18:05:01.270Z,54.10
2017-06-23T18:07:29.862Z,53.80
2017-06-23T18:09:58.249Z,54.20
2017-06-23T18:12:26.669Z,53.70
2017-06-23T18:14:55.850Z,54.20
2017-06-23T18:17:24.245Z,54.10
2017-06-23T18:19:52.664Z,53.80
2017-06-23T18:22:21.071Z,53.70
2017-06-23T18:24:49.453Z,54.00
2017-06-23T18:27:17.887Z,54.10
2017-06-23T18:29:46.266Z,54.30
2017-06-23T18:32:14.660Z,53.70
2017-06-23T18:34:43.074Z,53.40
2017-06-23T18:37:11.484Z,53.40
2017-06-23T18:39:40.004Z,53.00
2017-06-23T18:42:08.413Z,52.20
2017-06-23T18:44:36.818Z,52.20
2017-06-23T18:47:05.956Z,52.60
2017-06-23T18:49:34.362Z,52.60
2017-06-23T18:52:02.761Z,52.90
2017-06-23T18:54:31.257Z,52.70
2017-06-23T18:56:59.750Z,53.10
2017-06-23T18:59:28.225Z,54.00
2017-06-23T19:01:56.618Z,54.30
2017-06-23T19:04:25.056Z,54.50
2017-06-23T19:06:53.646Z,54.80
2017-06-23T19:09:22.033Z,54.40
2017-06-23T19:11:52.089Z,54.60
2017-06-23T19:14:20.475Z,54.90
2017-06-23T19:16:48.864Z,55.40
2017-06-23T19:19:17.301Z,55.80
2017-06-23T19:21:45.704Z,56.00
2017-06-23T19:24:14.133Z,56.30
2017-06-23T19:26:42.545Z,56.70
2017-06-23T19:29:10.986Z,56.80
2017-06-23T19:31:39.390Z,57.00
2017-06-23T19:34:07.815Z,57.30
2017-06-23T19:36:36.206Z,57.60
2017-06-23T19:39:03.905Z,57.90
2017-06-23T19:41:32.353Z,58.20
2017-06-23T19:44:00.804Z,58.50
2017-06-23T19:46:29.207Z,59.20
2017-06-23T19:48:57.626Z,59.40
2017-06-23T19:51:25.940Z,59.30
2017-06-23T19:53:54.330Z,59.40
2017-06-23T19:56:22.749Z,59.60
2017-06-23T19:58:52.581Z,60.30
2017-06-23T20:01:21.349Z,60.90
2017-06-23T20:03:50.688Z,61.30
2017-06-23T20:06:18.942Z,61.20
2017-06-23T20:08:47.385Z,61.90
2017-06-23T20:11:15.809Z,62.20
2017-06-23T20:13:44.206Z,62.70
2017-06-23T20:16:12.595Z,63.20
2017-06-23T20:18:41.014Z,63.50
2017-06-23T20:21:09.386Z,64.00
2017-06-23T20:23:37.787Z,64.20
2017-06-23T20:26:06.266Z,64.80
2017-06-23T20:28:34.644Z,65.10
2017-06-23T20:31:03.870Z,66.20
2017-06-23T20:33:32.293Z,66.20
2017-06-23T20:36:00.672Z,66.60
2017-06-23T20:38:29.061Z,67.00
2017-06-23T20:40:58.236Z,68.30
2017-06-23T20:43:26.721Z,67.80
2017-06-23T20:45:55.121Z,68.50
2017-06-23T20:48:24.312Z,69.30
2017-06-23T20:50:53.456Z,69.30
2017-06-23T20:53:21.854Z,69.60
2017-06-23T20:55:50.366Z,70.00
2017-06-23T20:58:18.753Z,70.40
2017-06-23T21:00:47.901Z,70.90
2017-06-23T21:03:16.355Z,70.70
2017-06-23T21:05:44.745Z,71.10
2017-06-23T21:08:13.121Z,71.30
2017-06-23T21:10:41.563Z,71.60
2017-06-23T21:13:10.724Z,72.40
2017-06-23T21:15:39.130Z,72.30
2017-06-23T21:18:07.531Z,72.50
2017-06-23T21:20:35.921Z,72.40
2017-06-23T21:23:04.328Z,72.50
2017-06-23T21:25:32.799Z,72.60
2017-06-23T21:28:01.209Z,72.80
2017-06-23T21:30:29.652Z,73.00
2017-06-23T21:32:58.057Z,73.00
2017-06-23T21:35:26.452Z,73.20
2017-06-23T21:37:54.901Z,73.40
2017-06-23T21:40:34.497Z,73.50
2017-06-23T21:43:03.691Z,73.90
2017-06-23T21:45:32.852Z,74.10
2017-06-23T21:48:01.270Z,74.00
2017-06-23T21:50:30.426Z,74.00
2017-06-23T21:52:58.831Z,74.00
2017-06-23T21:55:28.014Z,74.60
2017-06-23T21:57:56.412Z,74.60
2017-06-23T22:00:26.076Z,75.10
2017-06-23T22:02:54.571Z,75.00
2017-06-23T22:05:23.435Z,75.20
2017-06-23T22:07:51.919Z,75.70
2017-06-23T22:10:20.386Z,76.00
2017-06-23T22:12:48.803Z,76.20
2017-06-23T22:15:17.207Z,76.70
2017-06-23T22:17:46.398Z,77.40
2017-06-23T22:20:14.787Z,77.30
2017-06-23T22:22:43.265Z,77.70
2017-06-23T22:25:11.727Z,78.10
2017-06-23T22:27:40.104Z,78.20
2017-06-23T22:30:08.496Z,78.80
2017-06-23T22:32:37.738Z,79.30
2017-06-23T22:35:06.126Z,79.30
2017-06-23T22:37:34.562Z,79.60
2017-06-23T22:40:03.747Z,80.10
2017-06-23T22:42:32.914Z,80.10
2017-06-23T22:45:01.307Z,80.10
2017-06-23T22:47:29.846Z,80.10
2017-06-23T22:49:58.218Z,80.20
2017-06-23T22:52:26.606Z,80.40
2017-06-23T22:54:55.085Z,80.50
2017-06-23T22:57:23.459Z,80.60
2017-06-23T22:59:51.836Z,80.70
2017-06-23T23:02:20.254Z,81.10
2017-06-23T23:04:48.641Z,81.10
2017-06-23T23:07:17.030Z,81.30
2017-06-23T23:09:46.202Z,82.50
2017-06-23T23:12:14.589Z,81.60
2017-06-23T23:14:42.983Z,81.70
2017-06-23T23:17:12.149Z,82.40
2017-06-23T23:19:40.537Z,81.60
2017-06-23T23:22:33.021Z,81.80
2017-06-23T23:25:01.397Z,82.10
2017-06-23T23:27:30.565Z,82.20
2017-06-23T23:32:49.518Z,81.90
2017-06-23T23:35:17.890Z,81.80
2017-06-23T23:37:47.270Z,82.00
2017-06-23T23:40:15.657Z,82.10
2017-06-23T23:42:44.064Z,82.30
2017-06-23T23:45:12.166Z,82.40
2017-06-23T23:47:41.320Z,82.80
2017-06-23T23:50:09.727Z,82.80
2017-06-23T23:52:38.113Z,82.70
2017-06-23T23:55:07.723Z,82.80
2017-06-23T23:57:36.882Z,82.90
